createdAt,value
2023-03-26T00:01:47.264Z,8.10
2023-03-26T00:04:19.795Z,8.11
2023-03-26T00:06:50.449Z,8.12
2023-03-26T00:09:20.816Z,8.13
2023-03-26T00:11:53.110Z,8.12
2023-03-26T00:14:22.818Z,8.13
2023-03-26T00:16:53.910Z,8.11
2023-03-26T00:19:23.631Z,8.08
2023-03-26T00:21:53.455Z,8.07
2023-03-26T00:24:30.028Z,8.05
2023-03-26T00:27:02.373Z,8.01
2023-03-26T00:29:33.369Z,8.00
2023-03-26T00:32:03.186Z,7.96
2023-03-26T00:34:34.540Z,7.95
2023-03-26T00:37:04.356Z,7.93
2023-03-26T00:39:37.529Z,7.94
2023-03-26T00:42:10.086Z,7.94
2023-03-26T00:44:39.764Z,7.94
2023-03-26T00:47:09.504Z,7.95
2023-03-26T00:49:39.512Z,7.96
2023-03-26T00:52:09.374Z,7.95
2023-03-26T00:54:39.316Z,7.99
2023-03-26T00:57:18.186Z,7.97
2023-03-26T00:59:52.712Z,7.96
2023-03-26T01:02:23.244Z,7.97
2023-03-26T01:04:56.993Z,8.00
2023-03-26T01:07:29.085Z,7.99
2023-03-26T01:10:00.646Z,7.99
2023-03-26T01:12:34.713Z,7.99
2023-03-26T01:15:05.293Z,7.97
2023-03-26T01:17:38.030Z,7.93
2023-03-26T01:20:15.263Z,7.88
2023-03-26T01:22:49.058Z,7.83
2023-03-26T01:25:21.806Z,7.82
2023-03-26T01:27:52.828Z,7.80
2023-03-26T01:30:26.967Z,7.82
2023-03-26T01:32:58.386Z,7.81
2023-03-26T01:35:35.889Z,7.77
2023-03-26T01:38:18.657Z,7.75
2023-03-26T01:40:53.301Z,7.75
2023-03-26T01:43:28.820Z,7.71
2023-03-26T01:45:59.507Z,7.67
2023-03-26T01:48:34.337Z,7.60
2023-03-26T01:51:04.064Z,7.53
2023-03-26T01:53:34.107Z,7.50
2023-03-26T01:56:13.778Z,7.50
2023-03-26T01:58:52.689Z,7.50
2023-03-26T02:01:27.353Z,7.50
2023-03-26T02:04:02.634Z,7.54
2023-03-26T02:06:37.537Z,7.59
2023-03-26T02:09:09.167Z,7.64
2023-03-26T02:11:42.762Z,7.69
2023-03-26T02:14:12.701Z,7.71
2023-03-26T02:16:46.435Z,7.72
2023-03-26T02:19:21.934Z,7.69
2023-03-26T02:21:59.809Z,7.67
2023-03-26T02:24:30.909Z,7.69
2023-03-26T02:27:03.860Z,7.70
2023-03-26T02:29:37.860Z,7.72
2023-03-26T02:32:08.505Z,7.73
2023-03-26T02:34:38.396Z,7.71
2023-03-26T02:37:08.163Z,7.66
2023-03-26T02:39:39.073Z,7.56
2023-03-26T02:42:25.634Z,7.42
2023-03-26T02:44:55.455Z,7.27
2023-03-26T02:47:48.005Z,7.11
2023-03-26T02:50:38.042Z,6.94
2023-03-26T02:53:29.943Z,6.82
2023-03-26T02:56:17.695Z,6.67
2023-03-26T02:59:03.325Z,6.54
2023-03-26T03:01:35.195Z,6.41
2023-03-26T03:04:08.454Z,6.31
2023-03-26T03:06:39.042Z,6.21
2023-03-26T03:09:09.353Z,6.13
2023-03-26T03:11:39.500Z,6.05
2023-03-26T03:14:13.180Z,6.00
2023-03-26T03:16:42.905Z,5.98
2023-03-26T03:19:14.287Z,5.97
2023-03-26T03:21:44.880Z,6.00
2023-03-26T03:24:18.651Z,6.05
2023-03-26T03:26:55.149Z,6.08
2023-03-26T03:29:53.754Z,6.13
2023-03-26T03:32:58.450Z,6.18
2023-03-26T03:35:29.784Z,6.22
2023-03-26T03:38:02.131Z,6.25
2023-03-26T03:40:36.941Z,6.32
2023-03-26T03:43:06.661Z,6.39
2023-03-26T03:45:47.575Z,6.46
2023-03-26T03:48:39.210Z,6.53
2023-03-26T03:51:10.773Z,6.62
2023-03-26T03:53:49.839Z,6.69
2023-03-26T03:56:30.002Z,6.74
2023-03-26T03:59:25.980Z,6.81
2023-03-26T04:01:58.474Z,6.89
2023-03-26T04:04:50.368Z,6.95
2023-03-26T04:07:22.364Z,7.02
2023-03-26T04:10:13.048Z,7.07
2023-03-26T04:13:11.333Z,7.14
2023-03-26T04:16:04.044Z,7.17
2023-03-26T04:18:36.840Z,7.22
2023-03-26T04:21:12.853Z,7.23
2023-03-26T04:23:42.671Z,7.25
2023-03-26T04:26:23.747Z,7.27
2023-03-26T04:29:25.808Z,7.30
2023-03-26T04:31:59.072Z,7.32
2023-03-26T04:34:32.492Z,7.32
2023-03-26T04:37:12.322Z,7.32
2023-03-26T04:39:48.214Z,7.32
2023-03-26T04:42:37.716Z,7.32
2023-03-26T04:45:15.407Z,7.29
2023-03-26T04:47:48.781Z,7.27
2023-03-26T04:50:21.287Z,7.24
2023-03-26T04:52:51.244Z,7.21
2023-03-26T04:56:02.111Z,7.19
2023-03-26T04:59:02.072Z,7.16
2023-03-26T05:01:38.064Z,7.13
2023-03-26T05:04:08.944Z,7.12
2023-03-26T05:06:41.956Z,7.09
2023-03-26T05:09:22.099Z,7.08
2023-03-26T05:12:11.235Z,7.06
2023-03-26T05:14:54.937Z,7.04
2023-03-26T05:17:41.889Z,7.04
2023-03-26T05:20:21.310Z,7.04
2023-03-26T05:22:53.949Z,7.04
2023-03-26T05:25:30.609Z,7.05
2023-03-26T05:28:01.539Z,7.05
2023-03-26T05:30:41.587Z,7.05
2023-03-26T05:33:11.678Z,7.06
2023-03-26T05:36:02.230Z,7.07
2023-03-26T05:38:37.214Z,7.08
2023-03-26T05:41:11.159Z,7.10
2023-03-26T05:43:45.009Z,7.11
2023-03-26T05:46:20.473Z,7.14
2023-03-26T05:48:51.981Z,7.15
2023-03-26T05:51:23.528Z,7.17
2023-03-26T05:54:16.057Z,7.17
2023-03-26T05:57:04.111Z,7.18
2023-03-26T05:59:53.019Z,7.19
2023-03-26T06:02:42.917Z,7.20
2023-03-26T06:05:37.392Z,7.23
2023-03-26T06:08:12.727Z,7.23
2023-03-26T06:10:45.522Z,7.25
2023-03-26T06:13:16.327Z,7.25
2023-03-26T06:15:46.770Z,7.27
2023-03-26T06:18:37.868Z,7.27
2023-03-26T06:21:26.440Z,7.27
2023-03-26T06:24:02.612Z,7.25
2023-03-26T06:26:44.028Z,7.24
2023-03-26T06:29:39.554Z,7.22
2023-03-26T06:32:20.042Z,7.19
2023-03-26T06:34:55.277Z,7.17
2023-03-26T06:37:25.094Z,7.11
2023-03-26T06:40:00.413Z,7.04
2023-03-26T06:43:10.934Z,7.00
2023-03-26T06:45:52.907Z,6.97
2023-03-26T06:48:40.995Z,6.93
2023-03-26T06:51:43.706Z,6.90
2023-03-26T06:54:39.525Z,6.87
2023-03-26T06:57:30.584Z,6.86
2023-03-26T07:00:22.607Z,6.85
2023-03-26T07:03:11.640Z,6.85
2023-03-26T07:05:59.850Z,6.83
2023-03-26T07:08:48.073Z,6.83
2023-03-26T07:11:55.930Z,6.83
2023-03-26T07:14:46.360Z,6.81
2023-03-26T07:17:37.464Z,6.78
2023-03-26T07:20:15.702Z,6.77
2023-03-26T07:22:46.374Z,6.76
2023-03-26T07:25:20.631Z,6.78
2023-03-26T07:28:33.306Z,6.80
2023-03-26T07:31:43.241Z,6.84
2023-03-26T07:34:50.208Z,6.87
2023-03-26T07:37:47.086Z,6.90
2023-03-26T07:40:49.875Z,6.92
2023-03-26T07:44:03.356Z,6.95
2023-03-26T07:47:26.382Z,6.96
2023-03-26T07:50:22.698Z,6.99
2023-03-26T07:53:01.940Z,7.04
2023-03-26T07:55:59.156Z,7.06
2023-03-26T07:58:51.149Z,7.05
2023-03-26T08:01:58.444Z,7.04
2023-03-26T08:05:01.052Z,7.06
2023-03-26T08:08:06.361Z,7.07
2023-03-26T08:10:46.745Z,7.09
2023-03-26T08:13:26.151Z,7.07
2023-03-26T08:15:59.289Z,7.07
2023-03-26T08:18:38.937Z,7.14
2023-03-26T08:21:14.207Z,7.15
2023-03-26T08:23:54.060Z,7.18
2023-03-26T08:26:31.899Z,7.18
2023-03-26T08:29:07.602Z,7.17
2023-03-26T08:31:40.177Z,7.19
2023-03-26T08:34:13.120Z,7.20
2023-03-26T08:36:43.071Z,7.19
2023-03-26T08:39:15.554Z,7.16
2023-03-26T08:42:20.503Z,7.16
2023-03-26T08:45:17.656Z,7.14
2023-03-26T08:48:20.810Z,7.16
2023-03-26T08:51:17.592Z,7.17
2023-03-26T08:54:11.423Z,7.13
2023-03-26T08:56:52.665Z,7.14
2023-03-26T09:00:01.399Z,7.16
2023-03-26T09:03:19.834Z,7.19
2023-03-26T09:06:19.194Z,7.20
2023-03-26T09:09:20.840Z,7.20
2023-03-26T09:12:04.927Z,7.20
2023-03-26T09:15:02.441Z,7.20
2023-03-26T09:17:50.505Z,7.16
2023-03-26T09:21:11.039Z,7.11
2023-03-26T09:23:58.911Z,7.05
2023-03-26T09:26:30.146Z,7.02
2023-03-26T09:29:36.230Z,6.93
2023-03-26T09:32:25.574Z,6.82
2023-03-26T09:35:16.025Z,6.74
2023-03-26T09:37:58.617Z,6.67
2023-03-26T09:40:39.806Z,6.62
2023-03-26T09:43:30.315Z,6.55
2023-03-26T09:46:11.284Z,6.53
2023-03-26T09:49:09.751Z,6.50
2023-03-26T09:51:47.145Z,6.45
2023-03-26T09:54:44.509Z,6.38
2023-03-26T09:57:24.589Z,6.30
2023-03-26T10:00:13.466Z,6.22
2023-03-26T10:02:52.129Z,6.19
2023-03-26T10:05:29.048Z,6.17
2023-03-26T10:08:32.766Z,6.20
2023-03-26T10:11:07.296Z,6.26
2023-03-26T10:13:43.911Z,6.34
2023-03-26T10:16:22.428Z,6.41
2023-03-26T10:19:02.450Z,6.41
2023-03-26T10:21:41.830Z,6.39
2023-03-26T10:24:26.799Z,6.34
2023-03-26T10:27:18.071Z,6.29
2023-03-26T10:30:04.179Z,6.30
2023-03-26T10:32:38.094Z,6.27
2023-03-26T10:35:15.589Z,6.28
2023-03-26T10:37:57.478Z,6.28
2023-03-26T10:40:30.528Z,6.33
2023-03-26T10:43:22.477Z,6.36
2023-03-26T10:46:37.348Z,6.40
2023-03-26T10:49:39.909Z,6.48
2023-03-26T10:52:10.578Z,6.54
2023-03-26T10:54:52.588Z,6.62
2023-03-26T10:57:30.401Z,6.66
2023-03-26T11:00:01.102Z,6.71
2023-03-26T11:02:32.440Z,6.73
2023-03-26T11:05:18.535Z,6.74
2023-03-26T11:07:54.061Z,6.76
2023-03-26T11:10:29.461Z,6.79
2023-03-26T11:13:02.999Z,6.82
2023-03-26T11:15:38.828Z,6.81
2023-03-26T11:18:15.540Z,6.84
2023-03-26T11:20:50.427Z,6.89
2023-03-26T11:23:37.534Z,6.90
2023-03-26T11:26:20.494Z,6.89
2023-03-26T11:29:31.452Z,6.89
2023-03-26T11:32:01.265Z,6.88
2023-03-26T11:34:35.815Z,6.88
2023-03-26T11:37:09.864Z,6.88
2023-03-26T11:39:45.858Z,6.89
2023-03-26T11:42:20.161Z,6.86
2023-03-26T11:44:53.298Z,6.84
2023-03-26T11:47:25.999Z,6.83
2023-03-26T11:49:57.990Z,6.78
2023-03-26T11:52:28.548Z,6.82
2023-03-26T11:54:58.687Z,6.88
2023-03-26T11:57:33.449Z,6.97
2023-03-26T12:00:08.621Z,7.02
2023-03-26T12:02:43.160Z,7.05
2023-03-26T12:05:21.474Z,7.08
2023-03-26T12:07:56.940Z,7.17
2023-03-26T12:10:29.647Z,7.27
2023-03-26T12:13:04.429Z,7.34
2023-03-26T12:15:34.300Z,7.35
2023-03-26T12:18:23.628Z,7.40
2023-03-26T12:21:05.450Z,7.43
2023-03-26T12:23:42.606Z,7.42
2023-03-26T12:26:17.753Z,7.49
2023-03-26T12:28:52.126Z,7.52
2023-03-26T12:31:22.121Z,7.55
2023-03-26T12:34:08.459Z,7.60
2023-03-26T12:36:39.164Z,7.65
2023-03-26T12:40:06.971Z,7.72
2023-03-26T12:44:48.634Z,7.75
2023-03-26T12:45:27.572Z,7.83
2023-03-26T12:48:03.457Z,7.92
2023-03-26T12:50:48.240Z,8.04
2023-03-26T12:53:40.770Z,8.14
2023-03-26T12:56:17.507Z,8.19
2023-03-26T12:59:05.955Z,8.25
2023-03-26T13:01:47.451Z,8.30
2023-03-26T13:04:35.952Z,8.30
2023-03-26T13:07:13.512Z,8.26
2023-03-26T13:09:52.867Z,8.25
2023-03-26T13:12:34.156Z,8.22
2023-03-26T13:15:16.755Z,8.15
2023-03-26T13:17:54.166Z,8.07
2023-03-26T13:20:29.660Z,8.08
2023-03-26T13:23:04.389Z,8.04
2023-03-26T13:25:39.571Z,8.02
2023-03-26T13:28:24.838Z,7.99
2023-03-26T13:31:01.963Z,8.01
2023-03-26T13:33:52.206Z,8.06
2023-03-26T13:36:27.496Z,8.03
2023-03-26T13:39:07.721Z,8.05
2023-03-26T13:41:48.228Z,8.08
2023-03-26T13:44:26.506Z,8.11
2023-03-26T13:46:58.462Z,8.11
2023-03-26T13:49:37.424Z,8.14
2023-03-26T13:52:11.181Z,8.18
2023-03-26T13:54:44.976Z,8.22
2023-03-26T13:57:20.291Z,8.20
2023-03-26T13:59:54.020Z,8.14
2023-03-26T14:02:28.386Z,8.08
2023-03-26T14:05:04.852Z,7.96
2023-03-26T14:07:39.245Z,7.90
2023-03-26T14:10:12.594Z,7.90
2023-03-26T14:12:49.555Z,7.90
2023-03-26T14:15:25.931Z,8.00
2023-03-26T14:17:56.644Z,8.09
2023-03-26T14:21:02.103Z,8.24
2023-03-26T14:23:46.218Z,8.48
2023-03-26T14:26:25.264Z,8.61
2023-03-26T14:29:07.771Z,8.71
2023-03-26T14:31:39.653Z,8.84
2023-03-26T14:34:33.294Z,8.90
2023-03-26T14:37:29.089Z,8.93
2023-03-26T14:40:17.530Z,8.97
2023-03-26T14:42:56.669Z,9.10
2023-03-26T14:45:46.646Z,9.23
2023-03-26T14:48:33.800Z,9.39
2023-03-26T14:51:15.942Z,9.47
2023-03-26T14:53:48.225Z,9.43
2023-03-26T14:56:46.996Z,9.25
2023-03-26T15:00:02.269Z,9.04
2023-03-26T15:02:56.773Z,8.95
2023-03-26T15:05:56.437Z,8.95
2023-03-26T15:08:54.648Z,8.93
2023-03-26T15:11:34.627Z,8.84
2023-03-26T15:14:24.976Z,8.75
2023-03-26T15:17:37.166Z,8.71
2023-03-26T15:20:37.559Z,8.69
2023-03-26T15:23:42.935Z,8.63
2023-03-26T15:26:32.057Z,8.60
2023-03-26T15:29:11.289Z,8.58
2023-03-26T15:32:06.187Z,8.53
2023-03-26T15:35:00.167Z,8.47
2023-03-26T15:37:59.700Z,8.37
2023-03-26T15:40:36.808Z,8.30
2023-03-26T15:43:14.081Z,8.28
2023-03-26T15:45:45.391Z,8.24
2023-03-26T15:48:37.757Z,8.19
2023-03-26T15:51:46.467Z,8.13
2023-03-26T15:54:25.704Z,8.03
2023-03-26T15:57:18.434Z,7.95
2023-03-26T16:00:02.124Z,7.89
2023-03-26T16:02:50.284Z,7.81
2023-03-26T16:05:34.041Z,7.72
2023-03-26T16:08:10.806Z,7.66
2023-03-26T16:10:44.836Z,7.66
2023-03-26T16:13:35.055Z,7.70
2023-03-26T16:16:28.961Z,7.75
2023-03-26T16:19:01.195Z,7.80
2023-03-26T16:21:48.979Z,7.79
2023-03-26T16:24:25.933Z,7.70
2023-03-26T16:27:09.093Z,7.59
2023-03-26T16:30:10.002Z,7.47
2023-03-26T16:32:43.729Z,7.37
2023-03-26T16:35:38.801Z,7.30
2023-03-26T16:38:13.970Z,7.27
2023-03-26T16:41:02.820Z,7.26
2023-03-26T16:43:42.503Z,7.25
2023-03-26T16:46:23.651Z,7.23
2023-03-26T16:49:00.192Z,7.21
2023-03-26T16:51:40.163Z,7.20
2023-03-26T16:54:18.116Z,7.16
2023-03-26T16:56:51.712Z,7.12
2023-03-26T16:59:42.284Z,7.08
2023-03-26T17:02:23.366Z,7.01
2023-03-26T17:05:02.781Z,6.93
2023-03-26T17:07:40.880Z,6.92
2023-03-26T17:10:18.634Z,6.90
2023-03-26T17:12:54.355Z,6.88
2023-03-26T17:15:32.614Z,6.84
2023-03-26T17:18:16.438Z,6.78
2023-03-26T17:20:59.728Z,6.72
2023-03-26T17:23:35.997Z,6.66
2023-03-26T17:26:22.734Z,6.58
2023-03-26T17:29:05.867Z,6.53
2023-03-26T17:31:44.052Z,6.50
2023-03-26T17:34:35.590Z,6.47
2023-03-26T17:37:14.660Z,6.42
2023-03-26T17:40:37.919Z,6.39
2023-03-26T17:43:12.632Z,6.34
2023-03-26T17:45:44.175Z,6.34
2023-03-26T17:48:35.709Z,6.33
2023-03-26T17:51:07.194Z,6.32
2023-03-26T17:53:40.385Z,6.31
2023-03-26T17:56:16.862Z,6.28
2023-03-26T17:58:49.114Z,6.28
2023-03-26T18:01:26.016Z,6.30
2023-03-26T18:04:00.154Z,6.32
2023-03-26T18:06:36.503Z,6.34
2023-03-26T18:09:16.302Z,6.35
2023-03-26T18:11:56.725Z,6.37
2023-03-26T18:14:50.974Z,6.37
2023-03-26T18:17:20.945Z,6.35
2023-03-26T18:19:52.620Z,6.31
2023-03-26T18:22:27.839Z,6.30
2023-03-26T18:25:02.508Z,6.28
2023-03-26T18:27:38.995Z,6.28
2023-03-26T18:30:18.246Z,6.26
2023-03-26T18:33:00.180Z,6.25
2023-03-26T18:35:42.763Z,6.26
2023-03-26T18:38:17.098Z,6.28
2023-03-26T18:40:50.009Z,6.29
2023-03-26T18:43:34.126Z,6.32
2023-03-26T18:46:06.456Z,6.33
2023-03-26T18:48:36.272Z,6.36
2023-03-26T18:51:07.794Z,6.39
2023-03-26T18:53:40.870Z,6.39
2023-03-26T18:56:31.812Z,6.40
2023-03-26T18:59:02.651Z,6.39
2023-03-26T19:01:34.146Z,6.37
2023-03-26T19:04:06.725Z,6.34
2023-03-26T19:06:38.380Z,6.28
2023-03-26T19:09:23.839Z,6.22
2023-03-26T19:12:07.287Z,6.17
2023-03-26T19:14:43.100Z,6.16
2023-03-26T19:17:14.424Z,6.14
2023-03-26T19:19:44.439Z,6.15
2023-03-26T19:22:14.456Z,6.17
2023-03-26T19:24:44.521Z,6.18
2023-03-26T19:27:16.855Z,6.18
2023-03-26T19:29:47.201Z,6.19
2023-03-26T19:32:20.398Z,6.18
2023-03-26T19:34:51.473Z,6.18
2023-03-26T19:37:25.835Z,6.19
2023-03-26T19:39:58.735Z,6.17
2023-03-26T19:42:42.889Z,6.17
2023-03-26T19:45:18.882Z,6.15
2023-03-26T19:47:57.370Z,6.16
2023-03-26T19:50:32.095Z,6.15
2023-03-26T19:53:16.748Z,6.15
2023-03-26T19:55:56.593Z,6.13
2023-03-26T19:58:30.045Z,6.10
2023-03-26T20:01:00.011Z,6.10
2023-03-26T20:03:31.952Z,6.08
2023-03-26T20:06:01.754Z,6.05
2023-03-26T20:08:31.550Z,6.02
2023-03-26T20:11:01.484Z,6.01
2023-03-26T20:13:33.813Z,5.99
2023-03-26T20:16:12.110Z,5.98
2023-03-26T20:18:42.490Z,5.94
2023-03-26T20:21:13.784Z,5.92
2023-03-26T20:23:44.144Z,5.90
2023-03-26T20:26:15.692Z,5.89
2023-03-26T20:28:52.727Z,5.87
2023-03-26T20:31:26.387Z,5.86
2023-03-26T20:33:57.709Z,5.83
2023-03-26T20:36:33.111Z,5.81
2023-03-26T20:39:06.723Z,5.79
2023-03-26T20:41:38.230Z,5.76
2023-03-26T20:44:15.851Z,5.74
2023-03-26T20:46:45.902Z,5.73
2023-03-26T20:49:15.983Z,5.70
2023-03-26T20:51:46.937Z,5.67
2023-03-26T20:54:19.068Z,5.63
2023-03-26T20:56:49.446Z,5.61
2023-03-26T20:59:26.847Z,5.59
2023-03-26T21:01:58.171Z,5.58
2023-03-26T21:04:28.747Z,5.57
2023-03-26T21:07:06.978Z,5.55
2023-03-26T21:09:41.607Z,5.50
2023-03-26T21:12:16.933Z,5.47
2023-03-26T21:14:49.842Z,5.41
2023-03-26T21:17:22.288Z,5.36
2023-03-26T21:19:52.832Z,5.34
2023-03-26T21:22:29.996Z,5.31
2023-03-26T21:25:06.328Z,5.30
2023-03-26T21:27:42.005Z,5.25
2023-03-26T21:30:17.833Z,5.23
2023-03-26T21:32:53.186Z,5.22
2023-03-26T21:35:23.854Z,5.19
2023-03-26T21:37:54.475Z,5.13
2023-03-26T21:40:24.630Z,5.09
2023-03-26T21:42:56.295Z,5.06
2023-03-26T21:45:30.132Z,5.03
2023-03-26T21:48:00.654Z,5.00
2023-03-26T21:50:31.561Z,5.00
2023-03-26T21:53:01.866Z,4.97
2023-03-26T21:55:32.214Z,4.95
2023-03-26T21:58:21.522Z,4.91
2023-03-26T22:01:06.478Z,4.81
2023-03-26T22:03:41.052Z,4.68
2023-03-26T22:06:14.836Z,4.54
2023-03-26T22:08:45.492Z,4.40
2023-03-26T22:11:15.343Z,4.26
2023-03-26T22:13:45.015Z,4.10
2023-03-26T22:16:17.399Z,3.95
2023-03-26T22:18:47.225Z,3.81
2023-03-26T22:21:16.920Z,3.67
2023-03-26T22:23:52.863Z,3.54
2023-03-26T22:26:23.721Z,3.43
2023-03-26T22:28:53.938Z,3.32
2023-03-26T22:31:26.567Z,3.20
2023-03-26T22:33:57.284Z,3.11
2023-03-26T22:36:27.665Z,3.00
2023-03-26T22:38:57.892Z,2.88
2023-03-26T22:41:29.640Z,2.78
2023-03-26T22:44:09.393Z,2.69
2023-03-26T22:46:47.484Z,2.58
2023-03-26T22:49:17.226Z,2.49
2023-03-26T22:51:46.924Z,2.41
2023-03-26T22:54:16.978Z,2.34
2023-03-26T22:56:46.796Z,2.29
2023-03-26T22:59:16.568Z,2.23
2023-03-26T23:01:48.856Z,2.19
2023-03-26T23:04:30.557Z,2.14
2023-03-26T23:07:01.908Z,2.09
2023-03-26T23:09:31.671Z,2.03
2023-03-26T23:12:01.460Z,1.98
2023-03-26T23:14:32.501Z,1.96
2023-03-26T23:17:05.320Z,1.91
2023-03-26T23:19:37.167Z,1.86
2023-03-26T23:22:06.848Z,1.81
2023-03-26T23:24:37.911Z,1.78
2023-03-26T23:27:07.956Z,1.74
2023-03-26T23:29:37.636Z,1.69
2023-03-26T23:32:23.365Z,1.64
2023-03-26T23:34:55.922Z,1.58
2023-03-26T23:37:26.873Z,1.54
2023-03-26T23:39:56.558Z,1.49
2023-03-26T23:42:28.634Z,1.47
2023-03-26T23:44:59.872Z,1.44
2023-03-26T23:47:35.066Z,1.40
2023-03-26T23:50:05.199Z,1.39
2023-03-26T23:52:34.903Z,1.37
2023-03-26T23:55:04.641Z,1.34
2023-03-26T23:57:34.373Z,1.32
